Sunday, January 21, 2018, 8:41 PM GMT
Back to Local

CWNH, Riviere Du Loup, Que.

Location: , , Canada Lat: 47.8
Local Time: 8:41 PM GMT (20:41 GMT) Lon: -69.55
Time Zone: GMT Elev: 485 ft

Show me the last for .
Show Coded

Time T Td Feel RH Dir Speed Gust Alt SLP Vis Weather Sky Remarks
2018-01-21 20:00 13 3 6 63 10° 5 - - 30.14 0 None
2018-01-21 19:00 14 3 4 59 360° 7 - - 30.11 0 None
2018-01-21 18:00 14 3 2 60 340° 9 - - 30.11 0 None
2018-01-21 17:00 14 4 2 63 340° 9 - - 30.09 0 None
2018-01-21 16:00 13 4 1 65 340° 9 - - 30.09 0 None
2018-01-21 15:00 14 4 4 64 340° 7 - - 30.09 0 None
2018-01-21 14:00 13 2 4 61 330° 6 - - 30.08 0 None
2018-01-21 13:00 12 3 - 66 300° 2 - - 30.06 0 None
2018-01-21 12:00 13 4 3 66 340° 6 - - 30.04 0 None
2018-01-21 11:00 13 4 3 67 340° 6 - - 30.01 0 None
2018-01-21 10:00 13 4 4 67 330° 6 - - 29.98 0 None
2018-01-21 09:00 14 5 5 67 310° 6 - - 29.96 0 None
2018-01-21 08:00 14 8 - 76 310° 2 - - 29.94 0 None
2018-01-21 07:00 13 6 - 72 190° 1 - - 29.92 0 None
2018-01-21 06:00 15 7 7 70 320° 5 - - 29.87 0 None
2018-01-21 05:00 16 8 7 70 310° 6 - - 29.85 0 None
2018-01-21 04:00 16 9 1 70 320° 9 17 - 29.84 0 None
2018-01-21 03:00 18 9 8 67 320° 7 - - 29.80 0 Peak wind: 19 mph (17 kts) from 300° at 28 min
2018-01-21 02:00 19 10 9 69 320° 8 - - 29.76 0 Peak wind: 19 mph (17 kts) from 320° at 25 min
2018-01-21 01:00 20 13 4 70 320° 9 22 - 29.72 0 Peak wind: 23 mph (20 kts) from 320° at 15 min
2018-01-21 00:00 22 13 7 66 320° 12 22 - 29.66 0 Peak wind: 21 mph (19 kts) from 320° at 56 min
Pressure rising rapidly
2018-01-20 23:00 27 18 14 68 310° 8 17 - 29.59 0 Peak wind: 26 mph (23 kts) from 300° at 27 min
Pressure rising rapidly
2018-01-20 22:00 31 23 19 73 320° 8 18 - 29.49 0 Peak wind: 19 mph (17 kts) from 290° at 09 min
Pressure rising rapidly
2018-01-20 21:00 33 28 - 81 280° 2 - - 29.41 0 Peak wind: 21 mph (19 kts) from 220° at 12 min
Pressure rising rapidly

Support USWX by starting your Amazon purchase here.